sensor_id;sensor_type;location;lat;lon;timestamp;temperature;humidity
15707;DHT22;7953;54.302;10.128;2023-11-18T00:02:17;4.90;99.90
15707;DHT22;7953;54.302;10.128;2023-11-18T00:04:44;4.90;99.90
15707;DHT22;7953;54.302;10.128;2023-11-18T00:07:11;4.90;99.90
15707;DHT22;7953;54.302;10.128;2023-11-18T00:09:38;4.90;99.90
15707;DHT22;7953;54.302;10.128;2023-11-18T00:12:07;4.80;99.90
15707;DHT22;7953;54.302;10.128;2023-11-18T00:14:35;4.80;99.90
15707;DHT22;7953;54.302;10.128;2023-11-18T00:17:02;4.80;99.90
15707;DHT22;7953;54.302;10.128;2023-11-18T00:19:30;4.80;99.90
15707;DHT22;7953;54.302;10.128;2023-11-18T00:21:56;4.80;99.90
15707;DHT22;7953;54.302;10.128;2023-11-18T00:24:23;4.80;99.90
15707;DHT22;7953;54.302;10.128;2023-11-18T00:26:50;4.80;99.90
15707;DHT22;7953;54.302;10.128;2023-11-18T00:29:19;4.80;99.90
15707;DHT22;7953;54.302;10.128;2023-11-18T00:31:46;4.80;99.90
15707;DHT22;7953;54.302;10.128;2023-11-18T00:34:13;4.80;99.90
15707;DHT22;7953;54.302;10.128;2023-11-18T00:36:40;4.80;99.90
15707;DHT22;7953;54.302;10.128;2023-11-18T00:39:07;4.80;99.90
15707;DHT22;7953;54.302;10.128;2023-11-18T00:41:33;4.80;99.90
15707;DHT22;7953;54.302;10.128;2023-11-18T00:44:00;4.80;99.90
15707;DHT22;7953;54.302;10.128;2023-11-18T00:46:30;4.80;99.90
15707;DHT22;7953;54.302;10.128;2023-11-18T00:48:57;4.80;99.90
15707;DHT22;7953;54.302;10.128;2023-11-18T00:51:24;4.80;99.90
15707;DHT22;7953;54.302;10.128;2023-11-18T00:53:51;4.80;99.90
15707;DHT22;7953;54.302;10.128;2023-11-18T00:56:20;4.80;99.90
15707;DHT22;7953;54.302;10.128;2023-11-18T00:58:47;4.80;99.90
15707;DHT22;7953;54.302;10.128;2023-11-18T01:01:14;4.80;99.90
15707;DHT22;7953;54.302;10.128;2023-11-18T01:03:44;4.80;99.90
15707;DHT22;7953;54.302;10.128;2023-11-18T01:06:11;4.80;99.90
15707;DHT22;7953;54.302;10.128;2023-11-18T01:08:38;4.80;99.90
15707;DHT22;7953;54.302;10.128;2023-11-18T01:11:05;4.80;99.90
15707;DHT22;7953;54.302;10.128;2023-11-18T01:13:32;4.80;99.90
15707;DHT22;7953;54.302;10.128;2023-11-18T01:15:59;4.80;99.90
15707;DHT22;7953;54.302;10.128;2023-11-18T01:18:27;4.70;99.90
15707;DHT22;7953;54.302;10.128;2023-11-18T01:20:55;4.70;99.90
15707;DHT22;7953;54.302;10.128;2023-11-18T01:23:24;4.60;99.90
15707;DHT22;7953;54.302;10.128;2023-11-18T01:25:51;4.50;99.90
15707;DHT22;7953;54.302;10.128;2023-11-18T01:28:18;4.50;99.90
15707;DHT22;7953;54.302;10.128;2023-11-18T01:30:45;4.40;99.90
15707;DHT22;7953;54.302;10.128;2023-11-18T01:33:11;4.30;99.90
15707;DHT22;7953;54.302;10.128;2023-11-18T01:35:40;4.30;99.90
15707;DHT22;7953;54.302;10.128;2023-11-18T01:38:10;4.20;99.90
15707;DHT22;7953;54.302;10.128;2023-11-18T01:40:38;4.10;99.90
15707;DHT22;7953;54.302;10.128;2023-11-18T01:43:04;4.10;99.90
15707;DHT22;7953;54.302;10.128;2023-11-18T01:45:36;4.10;99.90
15707;DHT22;7953;54.302;10.128;2023-11-18T01:48:04;4.00;99.90
15707;DHT22;7953;54.302;10.128;2023-11-18T01:50:31;3.90;99.90
15707;DHT22;7953;54.302;10.128;2023-11-18T01:52:58;3.90;99.90
15707;DHT22;7953;54.302;10.128;2023-11-18T01:55:28;3.80;99.90
15707;DHT22;7953;54.302;10.128;2023-11-18T01:57:55;3.80;99.90
15707;DHT22;7953;54.302;10.128;2023-11-18T02:00:24;3.70;99.90
15707;DHT22;7953;54.302;10.128;2023-11-18T02:02:51;3.70;99.90
15707;DHT22;7953;54.302;10.128;2023-11-18T02:05:18;3.70;99.90
15707;DHT22;7953;54.302;10.128;2023-11-18T02:07:47;3.60;99.90
15707;DHT22;7953;54.302;10.128;2023-11-18T02:10:14;3.60;99.90
15707;DHT22;7953;54.302;10.128;2023-11-18T02:12:50;3.60;99.90
15707;DHT22;7953;54.302;10.128;2023-11-18T02:15:21;3.50;99.90
15707;DHT22;7953;54.302;10.128;2023-11-18T02:17:50;3.40;99.90
15707;DHT22;7953;54.302;10.128;2023-11-18T02:20:19;3.40;99.90
15707;DHT22;7953;54.302;10.128;2023-11-18T02:22:47;3.40;99.90
15707;DHT22;7953;54.302;10.128;2023-11-18T02:25:16;3.40;99.90
15707;DHT22;7953;54.302;10.128;2023-11-18T02:27:45;3.40;99.90
15707;DHT22;7953;54.302;10.128;2023-11-18T02:30:13;3.40;99.90
15707;DHT22;7953;54.302;10.128;2023-11-18T02:32:46;3.30;99.90
15707;DHT22;7953;54.302;10.128;2023-11-18T02:35:20;3.30;99.90
15707;DHT22;7953;54.302;10.128;2023-11-18T02:37:52;3.30;99.90
15707;DHT22;7953;54.302;10.128;2023-11-18T02:40:24;3.20;99.90
15707;DHT22;7953;54.302;10.128;2023-11-18T02:42:58;3.20;99.90
15707;DHT22;7953;54.302;10.128;2023-11-18T02:45:27;3.20;99.90
15707;DHT22;7953;54.302;10.128;2023-11-18T02:47:54;3.10;99.90
15707;DHT22;7953;54.302;10.128;2023-11-18T02:50:23;3.10;99.90
15707;DHT22;7953;54.302;10.128;2023-11-18T02:52:50;3.10;99.90
15707;DHT22;7953;54.302;10.128;2023-11-18T02:55:17;3.10;99.90
15707;DHT22;7953;54.302;10.128;2023-11-18T02:57:44;3.00;99.90
15707;DHT22;7953;54.302;10.128;2023-11-18T03:00:14;3.00;99.90
15707;DHT22;7953;54.302;10.128;2023-11-18T03:02:47;3.00;99.90
15707;DHT22;7953;54.302;10.128;2023-11-18T03:05:15;3.00;99.90
15707;DHT22;7953;54.302;10.128;2023-11-18T03:07:42;2.90;99.90
15707;DHT22;7953;54.302;10.128;2023-11-18T03:10:12;3.00;99.90
15707;DHT22;7953;54.302;10.128;2023-11-18T03:12:46;2.90;99.90
15707;DHT22;7953;54.302;10.128;2023-11-18T03:15:14;2.90;99.90
15707;DHT22;7953;54.302;10.128;2023-11-18T03:17:57;3.00;99.90
15707;DHT22;7953;54.302;10.128;2023-11-18T03:20:24;3.00;99.90
15707;DHT22;7953;54.302;10.128;2023-11-18T03:22:52;3.00;99.90
15707;DHT22;7953;54.302;10.128;2023-11-18T03:25:19;3.00;99.90
15707;DHT22;7953;54.302;10.128;2023-11-18T03:27:47;3.00;99.90
15707;DHT22;7953;54.302;10.128;2023-11-18T03:30:15;3.10;99.90
15707;DHT22;7953;54.302;10.128;2023-11-18T03:32:43;3.10;99.90
15707;DHT22;7953;54.302;10.128;2023-11-18T03:35:11;3.10;99.90
15707;DHT22;7953;54.302;10.128;2023-11-18T03:37:37;3.10;99.90
15707;DHT22;7953;54.302;10.128;2023-11-18T03:40:07;3.10;99.90
15707;DHT22;7953;54.302;10.128;2023-11-18T03:42:34;3.10;99.90
15707;DHT22;7953;54.302;10.128;2023-11-18T03:45:03;3.10;99.90
15707;DHT22;7953;54.302;10.128;2023-11-18T03:47:31;3.10;99.90
15707;DHT22;7953;54.302;10.128;2023-11-18T03:49:59;3.20;99.90
15707;DHT22;7953;54.302;10.128;2023-11-18T03:52:26;3.20;99.90
15707;DHT22;7953;54.302;10.128;2023-11-18T03:54:54;3.20;99.90
15707;DHT22;7953;54.302;10.128;2023-11-18T03:57:22;3.20;99.90
15707;DHT22;7953;54.302;10.128;2023-11-18T03:59:48;3.20;99.90
15707;DHT22;7953;54.302;10.128;2023-11-18T04:02:16;3.20;99.90
15707;DHT22;7953;54.302;10.128;2023-11-18T04:04:44;3.30;99.90
15707;DHT22;7953;54.302;10.128;2023-11-18T04:07:11;3.20;99.90
15707;DHT22;7953;54.302;10.128;2023-11-18T04:09:38;3.20;99.90
15707;DHT22;7953;54.302;10.128;2023-11-18T04:12:07;3.20;99.90
15707;DHT22;7953;54.302;10.128;2023-11-18T04:14:35;3.20;99.90
15707;DHT22;7953;54.302;10.128;2023-11-18T04:17:02;3.30;99.90
15707;DHT22;7953;54.302;10.128;2023-11-18T04:19:29;3.30;99.90
15707;DHT22;7953;54.302;10.128;2023-11-18T04:21:57;3.30;99.90
15707;DHT22;7953;54.302;10.128;2023-11-18T04:24:24;3.20;99.90
15707;DHT22;7953;54.302;10.128;2023-11-18T04:26:51;3.30;99.90
15707;DHT22;7953;54.302;10.128;2023-11-18T04:29:18;3.20;99.90
15707;DHT22;7953;54.302;10.128;2023-11-18T04:31:44;3.20;99.90
15707;DHT22;7953;54.302;10.128;2023-11-18T04:34:11;3.20;99.90
15707;DHT22;7953;54.302;10.128;2023-11-18T04:36:41;3.20;99.90
15707;DHT22;7953;54.302;10.128;2023-11-18T04:39:09;3.30;99.90
15707;DHT22;7953;54.302;10.128;2023-11-18T04:41:37;3.30;99.90
15707;DHT22;7953;54.302;10.128;2023-11-18T04:44:04;3.30;99.90
15707;DHT22;7953;54.302;10.128;2023-11-18T04:46:31;3.30;99.90
15707;DHT22;7953;54.302;10.128;2023-11-18T04:48:58;3.30;99.90
15707;DHT22;7953;54.302;10.128;2023-11-18T04:51:27;3.30;99.90
15707;DHT22;7953;54.302;10.128;2023-11-18T04:53:54;3.40;99.90
15707;DHT22;7953;54.302;10.128;2023-11-18T04:56:22;3.40;99.90
15707;DHT22;7953;54.302;10.128;2023-11-18T04:58:49;3.40;99.90
15707;DHT22;7953;54.302;10.128;2023-11-18T05:01:16;3.30;99.90
15707;DHT22;7953;54.302;10.128;2023-11-18T05:03:43;3.30;99.90
15707;DHT22;7953;54.302;10.128;2023-11-18T05:06:10;3.30;99.90
15707;DHT22;7953;54.302;10.128;2023-11-18T05:08:37;3.30;99.90
15707;DHT22;7953;54.302;10.128;2023-11-18T05:11:04;3.30;99.90
15707;DHT22;7953;54.302;10.128;2023-11-18T05:13:32;3.30;99.90
15707;DHT22;7953;54.302;10.128;2023-11-18T05:15:59;3.30;99.90
15707;DHT22;7953;54.302;10.128;2023-11-18T05:18:26;3.30;99.90
15707;DHT22;7953;54.302;10.128;2023-11-18T05:20:55;3.30;99.90
15707;DHT22;7953;54.302;10.128;2023-11-18T05:23:22;3.40;99.90
15707;DHT22;7953;54.302;10.128;2023-11-18T05:25:49;3.40;99.90
15707;DHT22;7953;54.302;10.128;2023-11-18T05:28:16;3.40;99.90
15707;DHT22;7953;54.302;10.128;2023-11-18T05:30:44;3.40;99.90
15707;DHT22;7953;54.302;10.128;2023-11-18T05:33:12;3.30;99.90
15707;DHT22;7953;54.302;10.128;2023-11-18T05:35:43;3.40;99.90
15707;DHT22;7953;54.302;10.128;2023-11-18T05:38:15;3.40;99.90
15707;DHT22;7953;54.302;10.128;2023-11-18T05:40:44;3.40;99.90
15707;DHT22;7953;54.302;10.128;2023-11-18T05:43:21;3.40;99.90
15707;DHT22;7953;54.302;10.128;2023-11-18T05:45:51;3.40;99.90
15707;DHT22;7953;54.302;10.128;2023-11-18T05:48:38;3.40;99.90
15707;DHT22;7953;54.302;10.128;2023-11-18T05:51:06;3.40;99.90
15707;DHT22;7953;54.302;10.128;2023-11-18T05:53:32;3.50;99.90
15707;DHT22;7953;54.302;10.128;2023-11-18T05:56:00;3.40;99.90
15707;DHT22;7953;54.302;10.128;2023-11-18T05:58:26;3.50;99.90
15707;DHT22;7953;54.302;10.128;2023-11-18T06:00:55;3.40;99.90
15707;DHT22;7953;54.302;10.128;2023-11-18T06:03:22;3.40;99.90
15707;DHT22;7953;54.302;10.128;2023-11-18T06:05:50;3.40;99.90
15707;DHT22;7953;54.302;10.128;2023-11-18T06:08:17;3.50;99.90
15707;DHT22;7953;54.302;10.128;2023-11-18T06:10:44;3.50;99.90
15707;DHT22;7953;54.302;10.128;2023-11-18T06:13:11;3.50;99.90
15707;DHT22;7953;54.302;10.128;2023-11-18T06:15:39;3.50;99.90
15707;DHT22;7953;54.302;10.128;2023-11-18T06:18:07;3.40;99.90
15707;DHT22;7953;54.302;10.128;2023-11-18T06:20:34;3.40;99.90
15707;DHT22;7953;54.302;10.128;2023-11-18T06:23:03;3.40;99.90
15707;DHT22;7953;54.302;10.128;2023-11-18T06:25:32;3.40;99.90
15707;DHT22;7953;54.302;10.128;2023-11-18T06:28:01;3.40;99.90
15707;DHT22;7953;54.302;10.128;2023-11-18T06:30:27;3.40;99.90
15707;DHT22;7953;54.302;10.128;2023-11-18T06:32:54;3.50;99.90
15707;DHT22;7953;54.302;10.128;2023-11-18T06:35:22;3.50;99.90
15707;DHT22;7953;54.302;10.128;2023-11-18T06:37:50;3.60;99.90
15707;DHT22;7953;54.302;10.128;2023-11-18T06:40:18;3.60;99.90
15707;DHT22;7953;54.302;10.128;2023-11-18T06:42:47;3.60;99.90
15707;DHT22;7953;54.302;10.128;2023-11-18T06:45:14;3.60;99.90
15707;DHT22;7953;54.302;10.128;2023-11-18T06:47:42;3.60;99.90
15707;DHT22;7953;54.302;10.128;2023-11-18T06:50:10;3.60;99.90
15707;DHT22;7953;54.302;10.128;2023-11-18T06:52:41;3.60;99.90
15707;DHT22;7953;54.302;10.128;2023-11-18T06:55:08;3.60;99.90
15707;DHT22;7953;54.302;10.128;2023-11-18T06:57:36;3.60;99.90
15707;DHT22;7953;54.302;10.128;2023-11-18T07:00:06;3.60;99.90
15707;DHT22;7953;54.302;10.128;2023-11-18T07:02:34;3.60;99.90
15707;DHT22;7953;54.302;10.128;2023-11-18T07:05:01;3.60;99.90
15707;DHT22;7953;54.302;10.128;2023-11-18T07:07:28;3.60;99.90
15707;DHT22;7953;54.302;10.128;2023-11-18T07:09:56;3.60;99.90
15707;DHT22;7953;54.302;10.128;2023-11-18T07:12:24;3.70;99.90
15707;DHT22;7953;54.302;10.128;2023-11-18T07:14:50;3.60;99.90
15707;DHT22;7953;54.302;10.128;2023-11-18T07:17:19;3.60;99.90
15707;DHT22;7953;54.302;10.128;2023-11-18T07:19:46;3.60;99.90
15707;DHT22;7953;54.302;10.128;2023-11-18T07:22:13;3.60;99.90
15707;DHT22;7953;54.302;10.128;2023-11-18T07:24:40;3.60;99.90
15707;DHT22;7953;54.302;10.128;2023-11-18T07:27:10;3.60;99.90
15707;DHT22;7953;54.302;10.128;2023-11-18T07:29:37;3.50;99.90
15707;DHT22;7953;54.302;10.128;2023-11-18T07:32:04;3.40;99.90
15707;DHT22;7953;54.302;10.128;2023-11-18T07:34:32;3.40;99.90
15707;DHT22;7953;54.302;10.128;2023-11-18T07:36:59;3.30;99.90
15707;DHT22;7953;54.302;10.128;2023-11-18T07:39:27;3.30;99.90
15707;DHT22;7953;54.302;10.128;2023-11-18T07:42:11;3.30;99.90
15707;DHT22;7953;54.302;10.128;2023-11-18T07:44:39;3.20;99.90
15707;DHT22;7953;54.302;10.128;2023-11-18T07:47:06;3.20;99.90
15707;DHT22;7953;54.302;10.128;2023-11-18T07:49:34;3.30;99.90
15707;DHT22;7953;54.302;10.128;2023-11-18T07:52:01;3.30;99.90
15707;DHT22;7953;54.302;10.128;2023-11-18T07:54:28;3.30;99.90
15707;DHT22;7953;54.302;10.128;2023-11-18T07:56:55;3.30;99.90
15707;DHT22;7953;54.302;10.128;2023-11-18T07:59:24;3.30;99.90
15707;DHT22;7953;54.302;10.128;2023-11-18T08:01:51;3.40;99.90
15707;DHT22;7953;54.302;10.128;2023-11-18T08:04:19;3.30;99.90
15707;DHT22;7953;54.302;10.128;2023-11-18T08:06:47;3.40;99.90
15707;DHT22;7953;54.302;10.128;2023-11-18T08:09:14;3.30;99.90
15707;DHT22;7953;54.302;10.128;2023-11-18T08:11:48;3.40;99.90
15707;DHT22;7953;54.302;10.128;2023-11-18T08:14:15;3.40;99.90
15707;DHT22;7953;54.302;10.128;2023-11-18T08:16:44;3.40;99.90
15707;DHT22;7953;54.302;10.128;2023-11-18T08:19:10;3.40;99.90
15707;DHT22;7953;54.302;10.128;2023-11-18T08:21:37;3.40;99.90
15707;DHT22;7953;54.302;10.128;2023-11-18T08:24:05;3.50;99.90
15707;DHT22;7953;54.302;10.128;2023-11-18T08:26:33;3.50;99.90
15707;DHT22;7953;54.302;10.128;2023-11-18T08:29:00;3.50;99.90
15707;DHT22;7953;54.302;10.128;2023-11-18T08:31:28;3.50;99.90
15707;DHT22;7953;54.302;10.128;2023-11-18T08:33:56;3.50;99.90
15707;DHT22;7953;54.302;10.128;2023-11-18T08:36:24;3.60;99.90
15707;DHT22;7953;54.302;10.128;2023-11-18T08:38:52;3.70;99.90
15707;DHT22;7953;54.302;10.128;2023-11-18T08:41:19;3.70;99.90
15707;DHT22;7953;54.302;10.128;2023-11-18T08:43:47;3.70;99.90
15707;DHT22;7953;54.302;10.128;2023-11-18T08:46:14;3.80;99.90
15707;DHT22;7953;54.302;10.128;2023-11-18T08:48:41;3.70;99.90
15707;DHT22;7953;54.302;10.128;2023-11-18T08:51:11;3.70;99.90
15707;DHT22;7953;54.302;10.128;2023-11-18T08:53:39;3.70;99.90
15707;DHT22;7953;54.302;10.128;2023-11-18T08:56:08;3.70;99.90
15707;DHT22;7953;54.302;10.128;2023-11-18T08:58:40;3.70;99.90
15707;DHT22;7953;54.302;10.128;2023-11-18T09:01:07;3.70;99.90
15707;DHT22;7953;54.302;10.128;2023-11-18T09:03:40;3.70;99.90
15707;DHT22;7953;54.302;10.128;2023-11-18T09:06:15;3.60;99.90
15707;DHT22;7953;54.302;10.128;2023-11-18T09:08:45;3.50;99.90
15707;DHT22;7953;54.302;10.128;2023-11-18T09:11:18;3.50;99.90
15707;DHT22;7953;54.302;10.128;2023-11-18T09:13:46;3.60;99.90
15707;DHT22;7953;54.302;10.128;2023-11-18T09:16:15;3.70;99.90
15707;DHT22;7953;54.302;10.128;2023-11-18T09:18:43;3.80;99.90
15707;DHT22;7953;54.302;10.128;2023-11-18T09:21:11;3.70;99.90
15707;DHT22;7953;54.302;10.128;2023-11-18T09:23:42;3.80;99.90
15707;DHT22;7953;54.302;10.128;2023-11-18T09:26:10;3.70;99.90
15707;DHT22;7953;54.302;10.128;2023-11-18T09:28:37;3.80;99.90
15707;DHT22;7953;54.302;10.128;2023-11-18T09:31:05;3.80;99.90
15707;DHT22;7953;54.302;10.128;2023-11-18T09:33:37;3.80;99.90
15707;DHT22;7953;54.302;10.128;2023-11-18T09:36:07;3.70;99.90
15707;DHT22;7953;54.302;10.128;2023-11-18T09:38:38;3.90;99.90
15707;DHT22;7953;54.302;10.128;2023-11-18T09:41:09;3.90;99.90
15707;DHT22;7953;54.302;10.128;2023-11-18T09:43:37;4.00;99.90
15707;DHT22;7953;54.302;10.128;2023-11-18T09:46:12;4.10;99.90
15707;DHT22;7953;54.302;10.128;2023-11-18T09:48:42;4.10;99.90
15707;DHT22;7953;54.302;10.128;2023-11-18T09:51:15;4.10;99.90
15707;DHT22;7953;54.302;10.128;2023-11-18T09:53:45;4.20;99.90
15707;DHT22;7953;54.302;10.128;2023-11-18T09:56:18;4.30;99.90
15707;DHT22;7953;54.302;10.128;2023-11-18T09:59:01;4.50;99.90
15707;DHT22;7953;54.302;10.128;2023-11-18T10:01:35;4.60;99.90
15707;DHT22;7953;54.302;10.128;2023-11-18T10:04:05;4.80;99.90
15707;DHT22;7953;54.302;10.128;2023-11-18T10:06:35;4.80;99.90
15707;DHT22;7953;54.302;10.128;2023-11-18T10:09:06;4.90;99.90
15707;DHT22;7953;54.302;10.128;2023-11-18T10:11:43;4.90;99.90
15707;DHT22;7953;54.302;10.128;2023-11-18T10:14:13;4.90;99.90
15707;DHT22;7953;54.302;10.128;2023-11-18T10:16:41;5.00;99.90
15707;DHT22;7953;54.302;10.128;2023-11-18T10:19:12;5.00;99.90
15707;DHT22;7953;54.302;10.128;2023-11-18T10:21:40;4.90;99.90
15707;DHT22;7953;54.302;10.128;2023-11-18T10:24:08;4.90;99.90
15707;DHT22;7953;54.302;10.128;2023-11-18T10:26:43;4.90;99.90
15707;DHT22;7953;54.302;10.128;2023-11-18T10:29:11;4.90;99.90
15707;DHT22;7953;54.302;10.128;2023-11-18T10:31:39;4.90;99.90
15707;DHT22;7953;54.302;10.128;2023-11-18T10:34:11;4.90;99.90
15707;DHT22;7953;54.302;10.128;2023-11-18T10:36:41;5.00;99.90
15707;DHT22;7953;54.302;10.128;2023-11-18T10:39:13;5.00;99.90
15707;DHT22;7953;54.302;10.128;2023-11-18T10:41:43;5.00;99.90
15707;DHT22;7953;54.302;10.128;2023-11-18T10:44:13;5.10;99.90
15707;DHT22;7953;54.302;10.128;2023-11-18T10:46:42;5.20;99.90
15707;DHT22;7953;54.302;10.128;2023-11-18T10:49:18;5.20;99.90
15707;DHT22;7953;54.302;10.128;2023-11-18T10:51:46;5.30;99.90
15707;DHT22;7953;54.302;10.128;2023-11-18T10:54:14;5.30;99.90
15707;DHT22;7953;54.302;10.128;2023-11-18T10:56:48;5.40;99.90
15707;DHT22;7953;54.302;10.128;2023-11-18T10:59:16;5.50;99.90
15707;DHT22;7953;54.302;10.128;2023-11-18T11:01:44;5.50;99.90
15707;DHT22;7953;54.302;10.128;2023-11-18T11:04:15;5.50;99.90
15707;DHT22;7953;54.302;10.128;2023-11-18T11:06:47;5.50;99.90
15707;DHT22;7953;54.302;10.128;2023-11-18T11:09:18;5.50;99.90
15707;DHT22;7953;54.302;10.128;2023-11-18T11:11:54;5.60;99.90
15707;DHT22;7953;54.302;10.128;2023-11-18T11:14:22;5.60;99.90
15707;DHT22;7953;54.302;10.128;2023-11-18T11:16:56;5.60;99.90
15707;DHT22;7953;54.302;10.128;2023-11-18T11:19:26;5.60;99.90
15707;DHT22;7953;54.302;10.128;2023-11-18T11:22:01;5.70;99.90
15707;DHT22;7953;54.302;10.128;2023-11-18T11:24:40;5.70;99.90
15707;DHT22;7953;54.302;10.128;2023-11-18T11:27:22;5.70;99.90
15707;DHT22;7953;54.302;10.128;2023-11-18T11:29:59;5.70;99.90
15707;DHT22;7953;54.302;10.128;2023-11-18T11:32:38;5.70;99.90
15707;DHT22;7953;54.302;10.128;2023-11-18T11:35:10;5.80;99.90
15707;DHT22;7953;54.302;10.128;2023-11-18T11:37:44;5.90;99.90
15707;DHT22;7953;54.302;10.128;2023-11-18T11:40:13;6.00;99.90
15707;DHT22;7953;54.302;10.128;2023-11-18T11:42:50;6.10;99.90
15707;DHT22;7953;54.302;10.128;2023-11-18T11:45:22;6.20;99.90
15707;DHT22;7953;54.302;10.128;2023-11-18T11:47:55;6.40;99.90
15707;DHT22;7953;54.302;10.128;2023-11-18T11:50:57;6.30;99.90
15707;DHT22;7953;54.302;10.128;2023-11-18T11:53:32;6.40;99.90
15707;DHT22;7953;54.302;10.128;2023-11-18T11:56:02;6.30;99.90
15707;DHT22;7953;54.302;10.128;2023-11-18T11:58:35;6.20;99.90
15707;DHT22;7953;54.302;10.128;2023-11-18T12:01:27;6.20;99.90
15707;DHT22;7953;54.302;10.128;2023-11-18T12:04:02;6.30;99.90
15707;DHT22;7953;54.302;10.128;2023-11-18T12:06:32;6.30;99.90
15707;DHT22;7953;54.302;10.128;2023-11-18T12:09:02;6.30;99.90
15707;DHT22;7953;54.302;10.128;2023-11-18T12:11:34;6.30;99.90
15707;DHT22;7953;54.302;10.128;2023-11-18T12:14:08;6.30;99.90
15707;DHT22;7953;54.302;10.128;2023-11-18T12:16:59;6.30;99.90
15707;DHT22;7953;54.302;10.128;2023-11-18T12:19:33;6.20;99.90
15707;DHT22;7953;54.302;10.128;2023-11-18T12:22:11;6.30;99.90
15707;DHT22;7953;54.302;10.128;2023-11-18T12:24:46;6.30;99.90
15707;DHT22;7953;54.302;10.128;2023-11-18T12:27:42;6.30;99.90
15707;DHT22;7953;54.302;10.128;2023-11-18T12:30:39;6.30;99.90
15707;DHT22;7953;54.302;10.128;2023-11-18T12:33:14;6.30;99.90
15707;DHT22;7953;54.302;10.128;2023-11-18T12:36:12;6.40;99.90
15707;DHT22;7953;54.302;10.128;2023-11-18T12:41:55;6.40;99.90
15707;DHT22;7953;54.302;10.128;2023-11-18T12:44:36;6.40;99.90
15707;DHT22;7953;54.302;10.128;2023-11-18T12:47:06;6.40;99.90
15707;DHT22;7953;54.302;10.128;2023-11-18T12:49:44;6.40;99.90
15707;DHT22;7953;54.302;10.128;2023-11-18T12:52:16;6.40;99.90
15707;DHT22;7953;54.302;10.128;2023-11-18T12:54:44;6.40;99.90
15707;DHT22;7953;54.302;10.128;2023-11-18T12:57:16;6.40;99.90
15707;DHT22;7953;54.302;10.128;2023-11-18T12:59:43;6.50;99.90
15707;DHT22;7953;54.302;10.128;2023-11-18T13:02:13;6.50;99.90
15707;DHT22;7953;54.302;10.128;2023-11-18T13:04:45;6.40;99.90
15707;DHT22;7953;54.302;10.128;2023-11-18T13:07:13;6.50;99.90
15707;DHT22;7953;54.302;10.128;2023-11-18T13:09:40;6.50;99.90
15707;DHT22;7953;54.302;10.128;2023-11-18T13:12:09;6.50;99.90
15707;DHT22;7953;54.302;10.128;2023-11-18T13:14:40;6.60;99.90
15707;DHT22;7953;54.302;10.128;2023-11-18T13:17:09;6.60;99.90
15707;DHT22;7953;54.302;10.128;2023-11-18T13:19:38;6.60;99.90
15707;DHT22;7953;54.302;10.128;2023-11-18T13:22:07;6.60;99.90
15707;DHT22;7953;54.302;10.128;2023-11-18T13:24:35;6.60;99.90
15707;DHT22;7953;54.302;10.128;2023-11-18T13:27:02;6.50;99.90
15707;DHT22;7953;54.302;10.128;2023-11-18T13:29:30;6.50;99.90
15707;DHT22;7953;54.302;10.128;2023-11-18T13:31:57;6.40;99.90
15707;DHT22;7953;54.302;10.128;2023-11-18T13:34:26;6.40;99.90
15707;DHT22;7953;54.302;10.128;2023-11-18T13:36:57;6.40;99.90
15707;DHT22;7953;54.302;10.128;2023-11-18T13:39:24;6.30;99.90
15707;DHT22;7953;54.302;10.128;2023-11-18T13:41:53;6.40;99.90
15707;DHT22;7953;54.302;10.128;2023-11-18T13:44:32;6.30;99.90
15707;DHT22;7953;54.302;10.128;2023-11-18T13:47:00;6.30;99.90
15707;DHT22;7953;54.302;10.128;2023-11-18T13:49:30;6.20;99.90
15707;DHT22;7953;54.302;10.128;2023-11-18T13:52:00;6.20;99.90
15707;DHT22;7953;54.302;10.128;2023-11-18T13:54:27;6.20;99.90
15707;DHT22;7953;54.302;10.128;2023-11-18T13:56:55;6.30;99.90
15707;DHT22;7953;54.302;10.128;2023-11-18T13:59:23;6.30;99.90
15707;DHT22;7953;54.302;10.128;2023-11-18T14:01:52;6.20;99.90
15707;DHT22;7953;54.302;10.128;2023-11-18T14:04:22;6.20;99.90
15707;DHT22;7953;54.302;10.128;2023-11-18T14:06:51;6.20;99.90
15707;DHT22;7953;54.302;10.128;2023-11-18T14:09:20;6.20;99.90
15707;DHT22;7953;54.302;10.128;2023-11-18T14:11:50;6.10;99.90
15707;DHT22;7953;54.302;10.128;2023-11-18T14:14:17;6.10;99.90
15707;DHT22;7953;54.302;10.128;2023-11-18T14:16:44;6.00;99.90
15707;DHT22;7953;54.302;10.128;2023-11-18T14:19:11;6.00;99.90
15707;DHT22;7953;54.302;10.128;2023-11-18T14:21:38;6.00;99.90
15707;DHT22;7953;54.302;10.128;2023-11-18T14:24:07;5.90;99.90
15707;DHT22;7953;54.302;10.128;2023-11-18T14:26:35;5.90;99.90
15707;DHT22;7953;54.302;10.128;2023-11-18T14:29:02;5.80;99.90
15707;DHT22;7953;54.302;10.128;2023-11-18T14:31:29;5.80;99.90
15707;DHT22;7953;54.302;10.128;2023-11-18T14:33:56;5.70;99.90
15707;DHT22;7953;54.302;10.128;2023-11-18T14:36:24;5.80;99.90
15707;DHT22;7953;54.302;10.128;2023-11-18T14:38:51;5.70;99.90
15707;DHT22;7953;54.302;10.128;2023-11-18T14:41:18;5.70;99.90
15707;DHT22;7953;54.302;10.128;2023-11-18T14:43:47;5.80;99.90
15707;DHT22;7953;54.302;10.128;2023-11-18T14:46:13;5.80;99.90
15707;DHT22;7953;54.302;10.128;2023-11-18T14:48:40;5.80;99.90
15707;DHT22;7953;54.302;10.128;2023-11-18T14:51:08;5.70;99.90
15707;DHT22;7953;54.302;10.128;2023-11-18T14:53:35;5.70;99.90
15707;DHT22;7953;54.302;10.128;2023-11-18T14:56:02;5.60;99.90
15707;DHT22;7953;54.302;10.128;2023-11-18T14:58:30;5.60;99.90
15707;DHT22;7953;54.302;10.128;2023-11-18T15:00:59;5.60;99.90
15707;DHT22;7953;54.302;10.128;2023-11-18T15:03:26;5.60;99.90
15707;DHT22;7953;54.302;10.128;2023-11-18T15:05:53;5.60;99.90
15707;DHT22;7953;54.302;10.128;2023-11-18T15:08:20;5.60;99.90
15707;DHT22;7953;54.302;10.128;2023-11-18T15:10:47;5.60;99.90
15707;DHT22;7953;54.302;10.128;2023-11-18T15:13:14;5.60;99.90
15707;DHT22;7953;54.302;10.128;2023-11-18T15:15:43;5.60;99.90
15707;DHT22;7953;54.302;10.128;2023-11-18T15:18:14;5.60;99.90
15707;DHT22;7953;54.302;10.128;2023-11-18T15:20:43;5.60;99.90
15707;DHT22;7953;54.302;10.128;2023-11-18T15:23:10;5.60;99.90
15707;DHT22;7953;54.302;10.128;2023-11-18T15:25:38;5.60;99.90
15707;DHT22;7953;54.302;10.128;2023-11-18T15:28:05;5.50;99.90
15707;DHT22;7953;54.302;10.128;2023-11-18T15:30:35;5.50;99.90
15707;DHT22;7953;54.302;10.128;2023-11-18T15:33:02;5.50;99.90
15707;DHT22;7953;54.302;10.128;2023-11-18T15:35:31;5.50;99.90
15707;DHT22;7953;54.302;10.128;2023-11-18T15:37:58;5.50;99.90
15707;DHT22;7953;54.302;10.128;2023-11-18T15:40:25;5.50;99.90
15707;DHT22;7953;54.302;10.128;2023-11-18T15:42:51;5.40;99.90
15707;DHT22;7953;54.302;10.128;2023-11-18T15:45:20;5.40;99.90
15707;DHT22;7953;54.302;10.128;2023-11-18T15:47:48;5.40;99.90
15707;DHT22;7953;54.302;10.128;2023-11-18T15:50:16;5.30;99.90
15707;DHT22;7953;54.302;10.128;2023-11-18T15:52:46;5.30;99.90
15707;DHT22;7953;54.302;10.128;2023-11-18T15:55:14;5.40;99.90
15707;DHT22;7953;54.302;10.128;2023-11-18T15:57:44;5.40;99.90
15707;DHT22;7953;54.302;10.128;2023-11-18T16:00:13;5.30;99.90
15707;DHT22;7953;54.302;10.128;2023-11-18T16:02:42;5.30;99.90